Time;durP1;ratioP1;P1;durP2;ratioP2;P2;SDS_P1;SDS_P2;PMS_P1;PMS_P2;Temp;Humidity;BMP_temperature;BMP_pressure;BME280_temperature;BME280_humidity;BME280_pressure;Samples;Min_cycle;Max_cycle;Signal;HPM_P1;HPM_P2
2021/01/29 00:09:27;;;;;;;11.57;3.65;;;7.40;99.90;;;;;;6715222;88;20186;-76
2021/01/29 00:19:28;;;;;;;13.13;3.25;;;7.60;99.90;;;;;;6710871;88;20281;-75
2021/01/29 00:29:28;;;;;;;8.00;2.65;;;8.00;99.90;;;;;;6714821;88;20251;-75
2021/01/29 00:39:29;;;;;;;7.60;3.30;;;8.20;99.90;;;;;;6721147;88;20668;-76
2021/01/29 00:49:29;;;;;;;11.50;3.30;;;7.90;99.90;;;;;;6717545;88;20190;-75
2021/01/29 00:59:30;;;;;;;7.85;1.45;;;7.90;99.90;;;;;;6714654;88;20190;-76
2021/01/29 01:09:30;;;;;;;7.32;1.42;;;8.40;99.90;;;;;;6709190;88;20214;-75
2021/01/29 01:19:35;;;;;;;5.85;1.20;;;8.50;99.90;;;;;;6721934;88;20318;-75
2021/01/29 01:29:35;;;;;;;6.30;1.30;;;8.40;99.90;;;;;;6721012;88;20172;-76
2021/01/29 01:39:36;;;;;;;10.75;1.87;;;8.30;99.90;;;;;;6713600;88;20243;-76
2021/01/29 01:49:37;;;;;;;7.05;2.78;;;8.40;99.90;;;;;;6710892;88;20245;-76
2021/01/29 01:59:43;;;;;;;10.35;3.30;;;8.00;99.90;;;;;;6718931;88;20208;-75
2021/01/29 02:09:48;;;;;;;12.10;3.20;;;8.00;99.90;;;;;;6722091;88;20200;-76
2021/01/29 02:20:10;;;;;;;10.80;2.87;;;8.00;99.90;;;;;;6732505;88;20572;-76
2021/01/29 02:30:34;;;;;;;7.28;2.50;;;7.80;99.90;;;;;;6722896;88;20194;-75
2021/01/29 02:40:53;;;;;;;8.32;2.30;;;7.90;99.90;;;;;;6721163;88;20245;-77
2021/01/29 02:51:09;;;;;;;9.63;2.10;;;7.90;99.90;;;;;;6720758;88;20208;-78
2021/01/29 03:01:48;;;;;;;7.43;2.33;;;8.00;99.90;;;;;;6724608;88;20212;-76
2021/01/29 03:12:09;;;;;;;7.00;2.20;;;7.90;99.90;;;;;;6703978;88;20580;-77
2021/01/29 03:22:19;;;;;;;5.78;1.77;;;8.00;99.90;;;;;;6727860;88;20206;-78
2021/01/29 03:32:22;;;;;;;8.68;1.98;;;8.00;99.90;;;;;;6725502;88;20186;-78
2021/01/29 03:42:51;;;;;;;8.55;2.17;;;8.00;99.90;;;;;;6724185;88;20197;-77
2021/01/29 03:52:59;;;;;;;9.52;1.80;;;8.00;99.90;;;;;;6723260;88;20348;-78
2021/01/29 04:03:14;;;;;;;6.90;2.45;;;8.10;99.90;;;;;;6725011;88;20173;-76
2021/01/29 04:13:23;;;;;;;8.38;2.20;;;8.10;99.90;;;;;;6730690;88;20215;-77
2021/01/29 04:23:37;;;;;;;10.50;2.90;;;8.20;99.90;;;;;;6726831;88;20248;-76
2021/01/29 04:33:43;;;;;;;4.93;3.10;;;8.20;99.90;;;;;;6733145;88;20194;-77
2021/01/29 04:44:17;;;;;;;5.32;3.20;;;8.20;99.90;;;;;;6726204;88;21016;-76
2021/01/29 04:54:50;;;;;;;6.95;2.97;;;8.20;99.90;;;;;;6714824;88;20178;-76
2021/01/29 05:05:27;;;;;;;5.05;2.62;;;8.30;99.90;;;;;;6715982;88;20201;-76
2021/01/29 05:15:27;;;;;;;7.13;2.93;;;8.40;99.90;;;;;;6722153;88;20198;-76
2021/01/29 05:26:11;;;;;;;5.18;2.17;;;8.50;99.90;;;;;;6709559;88;20178;-76
2021/01/29 05:36:49;;;;;;;4.95;1.20;;;8.60;99.90;;;;;;6720626;88;20264;-77
2021/01/29 05:47:17;;;;;;;2.33;0.50;;;8.70;99.90;;;;;;6709816;88;20649;-76
2021/01/29 05:57:40;;;;;;;2.30;0.70;;;9.00;99.90;;;;;;6704705;88;20190;-77
2021/01/29 06:08:17;;;;;;;1.00;0.32;;;9.10;99.90;;;;;;6718507;88;20190;-77
2021/01/29 06:18:40;;;;;;;0.57;0.28;;;9.60;99.90;;;;;;6705081;88;20210;-76
2021/01/29 06:29:07;;;;;;;1.20;0.57;;;9.60;99.90;;;;;;6719044;88;20178;-77
2021/01/29 06:39:15;;;;;;;;;;;9.50;99.90;;;;;;6706108;88;20193;-76
2021/01/29 06:49:27;;;;;;;;;;;9.40;99.90;;;;;;6705376;88;20078;-77
2021/01/29 06:59:52;;;;;;;3.97;0.50;;;9.30;99.90;;;;;;6718276;88;20064;-76
2021/01/29 07:10:05;;;;;;;2.28;0.62;;;9.30;99.90;;;;;;6713310;88;20197;-76
2021/01/29 07:20:29;;;;;;;2.03;0.70;;;9.20;99.90;;;;;;6718932;88;20248;-75
2021/01/29 07:30:53;;;;;;;3.50;0.57;;;9.10;99.90;;;;;;6722116;88;20328;-76
2021/01/29 07:41:27;;;;;;;5.50;0.70;;;9.20;99.90;;;;;;6723751;88;20845;-76
2021/01/29 07:51:46;;;;;;;3.47;0.60;;;9.10;99.90;;;;;;6706801;88;20214;-76
2021/01/29 08:02:13;;;;;;;4.97;0.70;;;9.20;99.90;;;;;;6717324;88;20226;-78
2021/01/29 08:12:20;;;;;;;10.55;1.48;;;9.20;99.90;;;;;;6719578;88;20230;-76
2021/01/29 08:22:27;;;;;;;12.65;1.90;;;9.30;99.90;;;;;;6719030;88;21030;-76
2021/01/29 08:33:04;;;;;;;11.75;1.73;;;9.30;99.90;;;;;;6711290;88;20185;-76
2021/01/29 08:43:16;;;;;;;10.38;1.37;;;9.40;99.90;;;;;;6715284;88;20239;-76
2021/01/29 08:53:35;;;;;;;12.27;1.52;;;9.60;99.90;;;;;;6713070;88;20252;-76
2021/01/29 09:03:51;;;;;;;13.85;1.85;;;9.70;99.90;;;;;;6708376;88;20672;-76
2021/01/29 09:13:56;;;;;;;8.68;1.70;;;9.80;99.90;;;;;;6712375;88;20293;-76
2021/01/29 09:24:12;;;;;;;10.20;1.30;;;10.00;99.90;;;;;;6728913;88;20258;-77
2021/01/29 09:34:20;;;;;;;14.33;1.63;;;9.90;99.90;;;;;;6730034;88;20227;-76
2021/01/29 09:44:42;;;;;;;14.10;2.00;;;10.00;99.90;;;;;;6724500;88;20982;-76
2021/01/29 09:55:04;;;;;;;14.00;1.58;;;10.10;99.90;;;;;;6710082;88;20182;-76
2021/01/29 10:05:24;;;;;;;8.52;1.60;;;10.00;99.90;;;;;;6712111;88;20242;-76
2021/01/29 10:15:31;;;;;;;13.00;1.65;;;10.30;99.90;;;;;;6712823;88;20240;-76
2021/01/29 10:25:43;;;;;;;13.45;1.98;;;10.50;99.90;;;;;;6709564;88;20193;-76
2021/01/29 10:36:00;;;;;;;11.75;1.90;;;10.80;99.90;;;;;;6713032;88;20235;-74
2021/01/29 10:46:01;;;;;;;17.23;2.35;;;11.00;99.90;;;;;;6716230;88;20590;-75
2021/01/29 10:56:08;;;;;;;14.50;2.10;;;10.80;99.90;;;;;;6715862;88;20235;-75
2021/01/29 11:06:12;;;;;;;12.05;1.87;;;10.60;99.90;;;;;;6714993;88;20570;-75
2021/01/29 11:16:18;;;;;;;14.05;1.98;;;10.50;99.90;;;;;;6714387;88;20199;-75
2021/01/29 11:26:25;;;;;;;12.00;1.95;;;10.60;99.90;;;;;;6716912;88;20787;-76
2021/01/29 11:36:34;;;;;;;8.90;1.20;;;10.30;99.90;;;;;;6721378;88;20695;-74
2021/01/29 11:46:58;;;;;;;7.85;1.30;;;9.80;99.90;;;;;;6721756;88;20248;-75
2021/01/29 11:57:10;;;;;;;8.35;1.62;;;10.00;99.90;;;;;;6717987;88;20195;-76
2021/01/29 12:07:32;;;;;;;4.57;1.00;;;11.20;99.90;;;;;;6716429;88;20617;-75
2021/01/29 12:17:34;;;;;;;9.10;1.30;;;12.20;99.90;;;;;;6720014;88;20199;-76
2021/01/29 12:27:35;;;;;;;7.82;1.40;;;12.40;99.90;;;;;;6724674;88;20189;-75
2021/01/29 12:37:57;;;;;;;10.93;1.20;;;12.40;99.90;;;;;;6725315;88;20193;-74
2021/01/29 12:48:17;;;;;;;5.07;1.00;;;11.50;99.90;;;;;;6718372;88;20350;-74
2021/01/29 12:58:19;;;;;;;6.55;1.27;;;10.90;99.90;;;;;;6718128;88;20243;-75
2021/01/29 13:08:57;;;;;;;5.95;0.88;;;11.50;99.90;;;;;;6728301;88;20255;-75
2021/01/29 13:19:03;;;;;;;5.32;1.20;;;12.80;99.90;;;;;;6717818;88;20705;-74
2021/01/29 13:29:20;;;;;;;6.83;1.23;;;12.80;99.90;;;;;;6715030;88;20219;-76
2021/01/29 13:39:26;;;;;;;5.75;1.17;;;11.50;99.90;;;;;;6712661;88;20199;-76
2021/01/29 13:49:40;;;;;;;7.85;1.27;;;10.40;99.90;;;;;;6713766;88;20235;-76
2021/01/29 13:59:45;;;;;;;4.85;1.05;;;10.40;99.90;;;;;;6712975;88;20207;-75
2021/01/29 14:09:46;;;;;;;7.68;1.20;;;10.30;99.90;;;;;;6716300;88;20209;-73
2021/01/29 14:19:49;;;;;;;8.40;1.27;;;10.30;99.90;;;;;;6711103;88;20294;-74
2021/01/29 14:30:03;;;;;;;8.75;1.40;;;10.30;99.90;;;;;;6714188;88;20543;-74
2021/01/29 14:40:14;;;;;;;11.82;1.52;;;10.50;99.90;;;;;;6724363;88;20202;-76
2021/01/29 14:50:17;;;;;;;7.97;1.48;;;10.60;99.90;;;;;;6706558;77;20243;-75
2021/01/29 15:00:35;;;;;;;7.57;0.90;;;10.60;99.90;;;;;;6681548;88;20192;-75
2021/01/29 15:10:39;;;;;;;5.35;0.70;;;10.20;99.90;;;;;;6669725;89;20183;-75
2021/01/29 15:21:31;;;;;;;4.85;0.65;;;8.80;99.90;;;;;;6669702;89;20436;-75
2021/01/29 15:31:38;;;;;;;3.45;0.85;;;8.60;99.90;;;;;;6668620;89;20187;-76
2021/01/29 15:41:39;;;;;;;4.68;0.80;;;8.70;99.90;;;;;;6668968;89;20188;-76
2021/01/29 15:51:51;;;;;;;5.75;0.90;;;8.70;99.90;;;;;;6659957;89;20302;-76
2021/01/29 16:01:54;;;;;;;3.60;0.68;;;8.90;99.90;;;;;;6655113;89;20203;-74
2021/01/29 16:11:56;;;;;;;1.98;0.47;;;9.10;99.90;;;;;;6665434;89;20231;-75
2021/01/29 16:22:10;;;;;;;2.85;0.60;;;9.30;99.90;;;;;;6663245;89;21036;-75
2021/01/29 16:32:14;;;;;;;6.32;1.00;;;8.90;99.90;;;;;;6663867;89;20319;-75
2021/01/29 16:42:31;;;;;;;4.40;0.85;;;8.30;99.90;;;;;;6663546;89;20234;-76
2021/01/29 16:52:32;;;;;;;8.65;0.90;;;8.20;99.90;;;;;;6664001;89;20195;-77
2021/01/29 17:02:37;;;;;;;2.92;0.65;;;8.20;99.90;;;;;;6669197;89;20275;-78
2021/01/29 17:12:39;;;;;;;3.47;0.70;;;8.40;99.90;;;;;;6668597;89;20194;-77
2021/01/29 17:22:42;;;;;;;4.25;1.00;;;8.40;99.90;;;;;;6669323;89;20299;-77
2021/01/29 17:32:43;;;;;;;0.95;0.50;;;8.40;99.90;;;;;;6670768;89;20226;-76
2021/01/29 17:42:43;;;;;;;3.17;0.68;;;8.20;99.90;;;;;;6663920;89;21085;-75
2021/01/29 17:52:45;;;;;;;2.60;0.80;;;8.10;99.90;;;;;;6665467;89;20208;-74
2021/01/29 18:03:00;;;;;;;2.28;0.60;;;8.20;99.90;;;;;;6659168;89;20683;-74
2021/01/29 18:13:19;;;;;;;2.15;0.88;;;8.30;99.90;;;;;;6662641;89;20244;-75
2021/01/29 18:23:22;;;;;;;1.85;0.50;;;8.00;99.90;;;;;;6664538;89;20192;-76
2021/01/29 18:33:26;;;;;;;2.72;0.73;;;8.00;99.90;;;;;;6663428;89;20241;-76
2021/01/29 18:43:27;;;;;;;3.75;0.88;;;7.80;99.90;;;;;;6668047;89;20180;-76
2021/01/29 18:53:27;;;;;;;5.23;1.10;;;7.90;99.90;;;;;;6669664;89;20243;-76
2021/01/29 19:03:29;;;;;;;2.80;1.05;;;7.90;99.90;;;;;;6673810;88;20577;-76
2021/01/29 19:13:29;;;;;;;5.53;1.35;;;8.00;99.90;;;;;;6678781;88;20676;-78
2021/01/29 19:23:30;;;;;;;6.53;2.05;;;8.10;99.90;;;;;;6677193;89;20218;-77
2021/01/29 19:33:30;;;;;;;7.97;2.20;;;8.10;99.90;;;;;;6675491;89;20184;-76
2021/01/29 19:43:34;;;;;;;10.23;2.77;;;8.10;99.90;;;;;;6675119;89;20271;-74
2021/01/29 19:53:36;;;;;;;8.70;2.30;;;8.10;99.90;;;;;;6669881;89;20563;-74
2021/01/29 20:03:37;;;;;;;9.98;2.70;;;8.20;99.90;;;;;;6670040;89;20190;-73
2021/01/29 20:13:38;;;;;;;12.00;3.25;;;8.30;99.90;;;;;;6666204;89;20205;-75
2021/01/29 20:23:39;;;;;;;9.57;2.80;;;8.30;99.90;;;;;;6667052;89;20691;-74
2021/01/29 20:33:41;;;;;;;13.80;3.23;;;8.40;99.90;;;;;;6668388;89;20203;-77
2021/01/29 20:43:41;;;;;;;10.55;3.90;;;8.50;99.90;;;;;;6669194;89;20540;-77
2021/01/29 20:53:43;;;;;;;10.07;2.95;;;8.60;99.90;;;;;;6665083;89;20188;-76
2021/01/29 21:03:44;;;;;;;11.80;3.42;;;8.50;99.90;;;;;;6663640;89;20641;-76
2021/01/29 21:13:45;;;;;;;10.15;3.30;;;8.60;99.90;;;;;;6664546;89;20367;-76
2021/01/29 21:23:46;;;;;;;14.90;3.53;;;8.70;99.90;;;;;;6666813;89;20648;-77
2021/01/29 21:33:46;;;;;;;14.35;3.55;;;8.70;99.90;;;;;;6671421;89;20195;-77
2021/01/29 21:43:47;;;;;;;9.25;3.22;;;8.70;99.90;;;;;;6667799;89;20206;-76
2021/01/29 21:53:47;;;;;;;13.98;4.07;;;8.70;99.90;;;;;;6670996;89;20356;-78
2021/01/29 22:03:48;;;;;;;10.43;3.47;;;8.60;99.90;;;;;;6668331;89;20180;-76
2021/01/29 22:13:48;;;;;;;11.60;3.97;;;8.50;99.90;;;;;;6669282;89;20747;-74
2021/01/29 22:23:50;;;;;;;11.25;3.90;;;8.50;99.90;;;;;;6666677;89;20192;-77
2021/01/29 22:33:50;;;;;;;11.40;3.00;;;8.60;99.90;;;;;;6667939;88;20348;-77
2021/01/29 22:43:51;;;;;;;8.67;2.70;;;8.60;99.90;;;;;;6661929;88;20306;-76
2021/01/29 22:53:51;;;;;;;9.35;2.83;;;8.40;99.90;;;;;;6659090;89;20624;-77
2021/01/29 23:03:52;;;;;;;10.48;3.35;;;8.40;99.90;;;;;;6663683;89;20205;-75
2021/01/29 23:13:53;;;;;;;11.38;3.45;;;8.30;99.90;;;;;;6655658;88;20195;-75
2021/01/29 23:23:53;;;;;;;13.52;3.80;;;8.20;99.90;;;;;;6659626;89;20199;-76
2021/01/29 23:33:54;;;;;;;12.10;4.72;;;8.10;99.90;;;;;;6693286;78;20176;-75
2021/01/29 23:43:54;;;;;;;11.57;4.25;;;8.00;99.90;;;;;;6694150;88;20190;-74
2021/01/29 23:53:55;;;;;;;14.05;5.28;;;7.80;99.90;;;;;;6698496;88;20280;-75
